Time;durP1;ratioP1;P1;durP2;ratioP2;P2;SDS_P1;SDS_P2;PMS_P1;PMS_P2;Temp;Humidity;BMP_temperature;BMP_pressure;BME280_temperature;BME280_humidity;BME280_pressure;Samples;Min_cycle;Max_cycle;Signal;HPM_P1;HPM_P2
2022/01/13 00:01:37;;;;;;;39.80;21.48;;;-1.90;75.50;;;;;;4979036;28;20023;-68
2022/01/13 00:04:03;;;;;;;49.17;24.55;;;-1.90;75.50;;;;;;4980055;28;20113;-67
2022/01/13 00:06:28;;;;;;;50.88;25.60;;;-1.90;75.70;;;;;;4979904;28;20050;-68
2022/01/13 00:08:54;;;;;;;50.47;25.38;;;-1.90;75.70;;;;;;4980109;28;20039;-67
2022/01/13 00:11:19;;;;;;;49.50;24.90;;;-2.00;75.60;;;;;;4978837;28;20042;-69
2022/01/13 00:13:52;;;;;;;50.35;24.80;;;-2.00;75.70;;;;;;4979816;28;20034;-68
2022/01/13 00:19:02;;;;;;;47.15;24.88;;;-2.00;75.90;;;;;;4979652;28;20035;-69
2022/01/13 00:21:36;;;;;;;50.40;24.92;;;-2.00;75.70;;;;;;4979851;28;20034;-68
2022/01/13 00:24:04;;;;;;;49.80;24.90;;;-2.00;75.70;;;;;;4984524;28;22378;-68
2022/01/13 00:26:32;;;;;;;49.65;25.17;;;-2.00;75.70;;;;;;4979189;28;20035;-68
2022/01/13 00:29:01;;;;;;;52.20;25.52;;;-2.00;75.70;;;;;;4978226;28;20100;-68
2022/01/13 00:31:28;;;;;;;50.72;25.10;;;-2.00;75.50;;;;;;4980658;28;20038;-68
2022/01/13 00:33:57;;;;;;;51.25;26.10;;;-2.10;75.40;;;;;;4979887;28;20031;-68
2022/01/13 00:36:26;;;;;;;51.72;26.15;;;-2.00;75.40;;;;;;4983748;28;20034;-68
2022/01/13 00:38:53;;;;;;;52.15;25.48;;;-2.00;75.30;;;;;;4977362;28;21635;-68
2022/01/13 00:41:19;;;;;;;50.95;24.88;;;-2.10;75.10;;;;;;4978738;28;20498;-69
2022/01/13 00:43:47;;;;;;;49.10;24.92;;;-2.10;75.20;;;;;;4976016;28;20177;-68
2022/01/13 00:46:21;;;;;;;49.20;25.05;;;-2.10;75.40;;;;;;4975519;28;20030;-66
2022/01/13 00:48:47;;;;;;;;;;;-2.20;75.20;;;;;;4977271;28;20114;-69
2022/01/13 00:51:13;;;;;;;46.42;23.40;;;-2.10;75.50;;;;;;4978563;28;19997;-68
2022/01/13 00:53:38;;;;;;;48.10;24.63;;;-2.20;75.20;;;;;;4978415;28;20108;-69
2022/01/13 00:56:04;;;;;;;46.90;24.10;;;-2.20;75.30;;;;;;4976391;28;20038;-69
2022/01/13 00:58:33;;;;;;;49.55;24.92;;;-2.20;75.40;;;;;;4977313;28;20039;-69
2022/01/13 01:01:00;;;;;;;52.38;25.77;;;-2.20;76.30;;;;;;4977889;28;20033;-69
2022/01/13 01:03:26;;;;;;;49.13;25.65;;;-2.20;75.40;;;;;;4977276;28;20038;-69
2022/01/13 01:05:53;;;;;;;46.97;24.48;;;-2.20;75.40;;;;;;4978246;28;20422;-68
2022/01/13 01:08:19;;;;;;;48.38;24.85;;;-2.20;75.50;;;;;;4977837;28;20034;-68
2022/01/13 01:10:47;;;;;;;45.95;23.25;;;-2.20;75.50;;;;;;4977683;28;20076;-68
2022/01/13 01:13:17;;;;;;;48.70;25.65;;;-2.20;75.60;;;;;;4978336;28;20047;-68
2022/01/13 01:15:47;;;;;;;48.65;24.42;;;-2.20;75.70;;;;;;4977717;28;20065;-68
2022/01/13 01:21:31;;;;;;;47.67;24.40;;;-2.20;75.70;;;;;;4976944;28;20039;-68
2022/01/13 01:28:54;;;;;;;50.80;25.13;;;-2.30;75.20;;;;;;4976432;28;20042;-68
2022/01/13 01:31:26;;;;;;;50.15;23.95;;;-2.30;75.20;;;;;;4975279;28;20039;-68
2022/01/13 01:34:11;;;;;;;48.88;23.35;;;-2.30;75.20;;;;;;4976779;28;20053;-68
2022/01/13 01:36:37;;;;;;;51.25;25.83;;;-2.30;75.20;;;;;;4972999;28;20034;-68
2022/01/13 01:39:05;;;;;;;54.22;25.05;;;-2.30;75.20;;;;;;4975249;28;20037;-68
2022/01/13 01:41:35;;;;;;;49.95;24.50;;;-2.30;75.20;;;;;;4974855;28;20042;-67
2022/01/13 01:44:06;;;;;;;50.85;25.63;;;-2.30;75.00;;;;;;4970175;28;20283;-68
2022/01/13 01:46:38;;;;;;;52.33;25.58;;;-2.40;75.10;;;;;;4974540;28;20038;-68
2022/01/13 01:49:14;;;;;;;46.55;24.17;;;-2.40;75.20;;;;;;4978359;28;20058;-69
2022/01/13 01:51:40;;;;;;;48.03;24.45;;;-2.40;75.20;;;;;;4976908;28;20106;-67
2022/01/13 01:54:05;;;;;;;50.78;24.95;;;-2.40;75.30;;;;;;4975275;28;20149;-68
2022/01/13 01:56:31;;;;;;;48.15;23.67;;;-2.50;75.30;;;;;;4975128;28;20039;-68
2022/01/13 01:59:01;;;;;;;46.22;24.13;;;-2.50;75.20;;;;;;4975113;28;20716;-68
2022/01/13 02:01:28;;;;;;;47.35;23.50;;;-2.50;75.20;;;;;;4977361;28;20053;-67
2022/01/13 02:03:54;;;;;;;46.10;23.52;;;-2.50;75.20;;;;;;4975053;28;20126;-68
2022/01/13 02:06:20;;;;;;;45.05;23.38;;;-2.50;75.20;;;;;;4973241;28;20084;-68
2022/01/13 02:08:45;;;;;;;46.40;22.17;;;-2.50;75.20;;;;;;4977009;28;20034;-68
2022/01/13 02:11:11;;;;;;;49.20;24.98;;;-2.50;75.20;;;;;;4973893;28;20088;-69
2022/01/13 02:13:44;;;;;;;47.53;24.00;;;-2.60;75.20;;;;;;4972764;28;20027;-68
2022/01/13 02:16:35;;;;;;;46.42;23.77;;;-2.60;75.20;;;;;;4976202;28;20041;-68
2022/01/13 02:18:57;;;;;;;46.10;22.55;;;-2.60;75.20;;;;;;4976544;28;20113;-68
2022/01/13 02:21:25;;;;;;;46.90;23.67;;;-2.60;75.30;;;;;;4976538;28;20031;-68
2022/01/13 02:23:51;;;;;;;46.95;23.00;;;-2.60;75.30;;;;;;4974622;28;20037;-69
2022/01/13 02:26:17;;;;;;;52.55;24.95;;;-2.60;75.30;;;;;;4977947;28;20795;-68
2022/01/13 02:28:44;;;;;;;51.22;24.98;;;-2.60;75.50;;;;;;4974504;28;20035;-68
2022/01/13 02:31:12;;;;;;;50.88;23.58;;;-2.60;75.60;;;;;;4974717;28;20077;-68
2022/01/13 02:33:38;;;;;;;45.58;23.60;;;-2.60;75.60;;;;;;4976101;28;20069;-68
2022/01/13 02:36:06;;;;;;;48.15;25.00;;;-2.60;75.70;;;;;;4978202;28;20035;-68
2022/01/13 02:38:32;;;;;;;50.00;25.30;;;-2.60;75.60;;;;;;4980639;28;20565;-68
2022/01/13 02:40:59;;;;;;;46.85;23.75;;;-2.60;75.70;;;;;;4979157;28;20042;-69
2022/01/13 02:43:26;;;;;;;47.65;23.52;;;-2.50;75.80;;;;;;4978825;28;20042;-69
2022/01/13 02:48:53;;;;;;;47.95;24.08;;;-2.50;76.10;;;;;;4958276;28;20034;-70
2022/01/13 02:51:19;;;;;;;44.20;23.10;;;-2.50;76.10;;;;;;4974120;28;20426;-68
2022/01/13 02:53:44;;;;;;;51.17;25.58;;;-2.50;76.20;;;;;;4979335;28;20058;-68
2022/01/13 02:56:10;;;;;;;47.95;24.30;;;-2.50;76.30;;;;;;4978255;28;20061;-68
2022/01/13 02:58:35;;;;;;;53.72;25.05;;;-2.50;76.50;;;;;;4976116;28;20034;-67
2022/01/13 03:01:02;;;;;;;48.97;24.45;;;-2.40;76.70;;;;;;4977709;28;20034;-67
2022/01/13 03:03:30;;;;;;;53.58;25.23;;;-2.40;76.90;;;;;;4977826;28;20034;-67
2022/01/13 03:05:56;;;;;;;46.10;23.75;;;-2.30;77.10;;;;;;4977965;28;20027;-68
2022/01/13 03:08:21;;;;;;;49.42;25.02;;;-2.30;77.10;;;;;;4980050;28;20062;-68
2022/01/13 03:10:47;;;;;;;50.75;25.63;;;-2.20;77.30;;;;;;4976778;28;20026;-68
2022/01/13 03:13:13;;;;;;;52.90;26.40;;;-2.20;77.40;;;;;;4976297;28;20073;-67
2022/01/13 03:15:38;;;;;;;46.65;24.50;;;-2.20;77.50;;;;;;4978521;28;20062;-69
2022/01/13 03:18:04;;;;;;;58.45;27.60;;;-2.10;77.60;;;;;;4978071;28;20034;-68
2022/01/13 03:20:30;;;;;;;61.83;29.08;;;-2.00;77.80;;;;;;4979148;28;20030;-69
2022/01/13 03:22:56;;;;;;;60.40;28.80;;;-2.00;78.00;;;;;;4977427;28;20096;-68
2022/01/13 03:25:23;;;;;;;55.38;26.58;;;-1.90;78.20;;;;;;4978827;28;20735;-67
2022/01/13 03:27:58;;;;;;;61.78;28.38;;;-1.90;78.40;;;;;;4980108;28;20034;-68
2022/01/13 03:30:24;;;;;;;64.35;29.70;;;-1.80;78.50;;;;;;4979871;28;20039;-68
2022/01/13 03:32:50;;;;;;;65.10;29.67;;;-1.80;78.50;;;;;;4978522;28;20118;-67
2022/01/13 03:35:16;;;;;;;61.78;28.98;;;-1.70;78.60;;;;;;4978879;28;20030;-68
2022/01/13 03:37:41;;;;;;;60.88;28.77;;;-1.70;78.70;;;;;;4980343;28;20034;-68
2022/01/13 03:40:08;;;;;;;66.13;29.52;;;-1.60;78.60;;;;;;4979302;28;20039;-68
2022/01/13 03:42:33;;;;;;;62.75;28.25;;;-1.60;78.60;;;;;;4978854;28;20078;-68
2022/01/13 03:45:00;;;;;;;60.80;28.27;;;-1.50;78.60;;;;;;4980003;28;20035;-68
2022/01/13 03:47:26;;;;;;;60.80;28.23;;;-1.50;78.60;;;;;;4979111;28;20458;-69
2022/01/13 03:49:51;;;;;;;61.13;28.88;;;-1.50;78.60;;;;;;4980185;28;20034;-69
2022/01/13 03:52:23;;;;;;;67.97;29.73;;;-1.40;78.70;;;;;;4978616;28;20142;-68
2022/01/13 03:55:30;;;;;;;68.78;29.73;;;-1.40;78.80;;;;;;4978412;28;20458;-68
2022/01/13 03:58:17;;;;;;;75.93;29.85;;;-1.40;79.20;;;;;;4979220;28;20069;-69
2022/01/13 04:01:18;;;;;;;74.45;30.63;;;-1.30;79.00;;;;;;4977983;28;20039;-68
2022/01/13 04:03:44;;;;;;;83.82;29.23;;;-1.30;78.50;;;;;;4978717;28;20062;-68
2022/01/13 04:06:16;;;;;;;85.05;31.25;;;-1.30;78.50;;;;;;4978658;28;20085;-68
2022/01/13 04:08:42;;;;;;;69.75;29.77;;;-1.30;78.50;;;;;;4977735;28;20058;-69
2022/01/13 04:11:10;;;;;;;67.25;30.13;;;-1.40;78.30;;;;;;4978261;28;20045;-68
2022/01/13 04:16:15;;;;;;;72.72;29.25;;;-1.40;78.60;;;;;;4980324;28;20043;-68
2022/01/13 04:18:41;;;;;;;71.35;29.92;;;-1.40;78.70;;;;;;4977730;28;20715;-68
2022/01/13 04:21:07;;;;;;;72.43;30.67;;;-1.40;78.80;;;;;;4978973;28;20031;-69
2022/01/13 04:23:33;;;;;;;71.53;29.52;;;-1.40;79.00;;;;;;4979276;28;20023;-68
2022/01/13 04:25:59;;;;;;;73.97;30.35;;;-1.40;79.00;;;;;;4977366;28;20122;-69
2022/01/13 04:28:28;;;;;;;64.50;28.42;;;-1.40;79.20;;;;;;4978856;28;20129;-70
2022/01/13 04:31:00;;;;;;;66.70;29.02;;;-1.40;79.40;;;;;;4976926;28;20805;-69
2022/01/13 04:33:27;;;;;;;75.57;31.05;;;-1.40;79.50;;;;;;4974185;28;20053;-69
2022/01/13 04:35:52;;;;;;;73.75;31.00;;;-1.30;79.50;;;;;;4974626;28;20402;-67
2022/01/13 04:38:18;;;;;;;73.03;30.58;;;-1.30;79.50;;;;;;4972565;28;20042;-68
2022/01/13 04:40:46;;;;;;;92.45;31.40;;;-1.30;79.50;;;;;;4972197;28;20108;-68
2022/01/13 04:43:13;;;;;;;67.75;28.70;;;-1.20;80.40;;;;;;4973272;28;20080;-67
2022/01/13 04:45:39;;;;;;;90.72;29.50;;;-1.20;79.50;;;;;;4975527;28;20038;-67
2022/01/13 04:48:05;;;;;;;75.82;29.08;;;-1.20;79.40;;;;;;4973247;28;20221;-67
2022/01/13 04:50:31;;;;;;;75.03;29.92;;;-1.10;79.30;;;;;;4971760;28;20038;-67
2022/01/13 04:52:57;;;;;;;77.05;28.10;;;-1.10;79.20;;;;;;4972875;28;20045;-68
2022/01/13 04:55:29;;;;;;;75.05;28.90;;;-1.10;79.10;;;;;;4973993;28;20043;-67
2022/01/13 04:57:55;;;;;;;70.35;28.00;;;-1.10;79.00;;;;;;4975770;28;20045;-67
2022/01/13 05:00:22;;;;;;;73.05;27.88;;;-1.20;79.00;;;;;;4976136;28;20518;-68
2022/01/13 05:02:48;;;;;;;98.93;29.88;;;-1.20;79.00;;;;;;4976331;28;20038;-66
2022/01/13 05:05:14;;;;;;;64.78;27.80;;;-1.20;79.20;;;;;;4973277;28;20088;-67
2022/01/13 05:07:40;;;;;;;63.55;28.02;;;-1.20;79.30;;;;;;4976057;28;20510;-67
2022/01/13 05:10:06;;;;;;;72.18;27.67;;;-1.20;79.40;;;;;;4976614;28;20050;-67
2022/01/13 05:12:39;;;;;;;79.25;28.20;;;-1.20;79.40;;;;;;4974195;28;20042;-68
2022/01/13 05:15:07;;;;;;;78.78;27.50;;;-1.20;79.30;;;;;;4976990;28;20026;-67
2022/01/13 05:20:20;;;;;;;86.82;27.48;;;-1.20;79.20;;;;;;4975218;28;20125;-68
2022/01/13 05:22:48;;;;;;;72.30;27.35;;;-1.30;79.00;;;;;;4970482;28;20120;-68
2022/01/13 05:25:14;;;;;;;70.90;26.63;;;-1.30;79.00;;;;;;4970162;28;20033;-68
2022/01/13 05:27:40;;;;;;;70.05;28.88;;;-1.40;79.20;;;;;;4971833;28;20581;-67
2022/01/13 05:30:07;;;;;;;66.43;27.83;;;-1.40;79.40;;;;;;4982482;28;20034;-67
2022/01/13 05:32:33;;;;;;;67.47;28.00;;;-1.40;79.60;;;;;;4977376;28;20030;-68
2022/01/13 05:34:58;;;;;;;71.00;28.73;;;-1.40;79.80;;;;;;4978068;28;20038;-67
2022/01/13 05:37:24;;;;;;;78.75;29.10;;;-1.30;79.90;;;;;;4976395;28;20442;-68
2022/01/13 05:39:50;;;;;;;74.55;29.92;;;-1.30;79.90;;;;;;4976103;28;20043;-68
2022/01/13 05:42:15;;;;;;;76.70;31.02;;;-1.30;79.90;;;;;;4978070;28;20139;-69
2022/01/13 05:44:41;;;;;;;76.25;29.35;;;-1.20;79.90;;;;;;4976279;28;20034;-67
2022/01/13 05:47:08;;;;;;;73.20;28.67;;;-1.20;79.70;;;;;;4977506;28;20027;-67
2022/01/13 05:49:34;;;;;;;85.07;31.40;;;-1.20;79.70;;;;;;4978267;28;20437;-68
2022/01/13 05:52:00;;;;;;;77.25;28.80;;;-1.20;79.70;;;;;;4976053;28;20039;-68
2022/01/13 05:54:26;;;;;;;70.80;28.05;;;-1.20;79.70;;;;;;4973937;28;20715;-68
2022/01/13 05:56:52;;;;;;;68.97;29.63;;;-1.20;79.70;;;;;;4977531;28;20061;-67
2022/01/13 05:59:19;;;;;;;79.25;31.50;;;-1.20;79.80;;;;;;4977267;28;20600;-68
2022/01/13 06:01:44;;;;;;;72.15;28.77;;;-1.10;79.90;;;;;;4975831;28;20156;-68
2022/01/13 06:04:10;;;;;;;67.65;28.42;;;-1.10;79.90;;;;;;4977234;28;20118;-68
2022/01/13 06:06:35;;;;;;;70.68;29.42;;;-1.10;79.80;;;;;;4976774;28;20065;-68
2022/01/13 06:09:01;;;;;;;93.22;32.08;;;-1.10;79.90;;;;;;4979224;28;20514;-67
2022/01/13 06:11:36;;;;;;;75.88;31.10;;;-1.10;79.70;;;;;;4977884;28;20038;-68
2022/01/13 06:14:02;;;;;;;78.07;29.45;;;-1.10;79.50;;;;;;4980081;28;20030;-68
2022/01/13 06:16:28;;;;;;;66.60;27.02;;;-1.10;79.50;;;;;;4979697;28;20053;-67
2022/01/13 06:18:53;;;;;;;76.70;30.70;;;-1.00;79.70;;;;;;4981396;28;20620;-67
2022/01/13 06:21:19;;;;;;;68.15;28.15;;;-1.00;79.90;;;;;;4980771;28;20039;-68
2022/01/13 06:23:45;;;;;;;75.18;30.42;;;-1.00;79.90;;;;;;4979391;28;20318;-69
2022/01/13 06:26:10;;;;;;;71.72;30.52;;;-1.00;80.00;;;;;;4980283;28;20113;-68
2022/01/13 06:28:36;;;;;;;84.88;30.67;;;-0.90;80.00;;;;;;4980591;28;20034;-66
2022/01/13 06:31:01;;;;;;;70.20;30.50;;;-0.90;79.90;;;;;;4979627;28;20453;-68
2022/01/13 06:33:28;;;;;;;68.22;30.15;;;-0.90;79.50;;;;;;4981415;28;20034;-67
2022/01/13 06:35:54;;;;;;;64.57;27.38;;;-0.90;79.20;;;;;;4982376;28;20030;-65
2022/01/13 06:38:19;;;;;;;62.40;26.65;;;-0.90;79.30;;;;;;4981258;28;20605;-68
2022/01/13 06:40:45;;;;;;;67.15;29.08;;;-0.90;79.40;;;;;;4979403;28;20484;-67
2022/01/13 06:43:11;;;;;;;70.32;29.90;;;-0.90;79.50;;;;;;4979104;28;20062;-68
2022/01/13 06:45:36;;;;;;;69.80;28.52;;;-0.90;79.60;;;;;;4980048;28;20042;-68
2022/01/13 06:48:02;;;;;;;65.35;27.20;;;-0.90;79.60;;;;;;4981793;28;20045;-67
2022/01/13 06:50:28;;;;;;;72.47;28.83;;;-0.90;79.50;;;;;;4986440;28;20034;-68
2022/01/13 06:52:54;;;;;;;69.05;28.52;;;-0.90;79.50;;;;;;4980163;28;20085;-68
2022/01/13 06:55:20;;;;;;;70.15;28.67;;;-0.90;79.50;;;;;;4979928;28;20690;-67
2022/01/13 06:57:46;;;;;;;68.15;28.30;;;-0.90;79.50;;;;;;4981105;28;20026;-67
2022/01/13 07:00:13;;;;;;;68.45;28.85;;;-0.90;79.50;;;;;;4979720;28;20109;-67
2022/01/13 07:02:39;;;;;;;79.35;30.60;;;-0.80;79.40;;;;;;4979802;28;20057;-67
2022/01/13 07:05:05;;;;;;;83.32;31.33;;;-0.80;79.30;;;;;;4980181;28;20109;-68
2022/01/13 07:07:34;;;;;;;73.88;30.30;;;-0.80;79.30;;;;;;4981461;28;20039;-68
2022/01/13 07:10:00;;;;;;;75.22;30.58;;;-0.80;79.30;;;;;;4977739;28;20038;-68
2022/01/13 07:12:26;;;;;;;72.00;30.90;;;-0.80;79.30;;;;;;4978161;28;20105;-68
2022/01/13 07:14:52;;;;;;;70.85;30.50;;;-0.90;79.40;;;;;;4979545;28;20045;-68
2022/01/13 07:17:17;;;;;;;70.82;30.40;;;-0.80;79.50;;;;;;4978422;28;20112;-68
2022/01/13 07:19:46;;;;;;;75.28;31.65;;;-0.90;79.50;;;;;;4980879;28;20042;-68
2022/01/13 07:22:12;;;;;;;77.68;30.98;;;-0.80;79.60;;;;;;4978978;28;20089;-68
2022/01/13 07:24:37;;;;;;;72.97;29.85;;;-0.80;79.70;;;;;;4980476;28;20031;-68
2022/01/13 07:27:03;;;;;;;68.97;29.95;;;-0.80;79.70;;;;;;4979929;28;20031;-68
2022/01/13 07:29:29;;;;;;;68.20;30.25;;;-0.80;79.70;;;;;;4978643;28;20101;-67
2022/01/13 07:31:54;;;;;;;74.45;30.50;;;-0.80;79.70;;;;;;4979891;28;20114;-69
2022/01/13 07:34:20;;;;;;;75.65;30.95;;;-0.70;79.70;;;;;;4978882;28;20039;-67
2022/01/13 07:36:46;;;;;;;77.20;33.90;;;-0.70;79.70;;;;;;4980640;28;20513;-68
2022/01/13 07:39:11;;;;;;;78.55;33.00;;;-0.70;79.70;;;;;;4978468;28;20528;-67
2022/01/13 07:41:38;;;;;;;71.22;30.40;;;-0.70;79.50;;;;;;4973819;28;20027;-68
2022/01/13 07:44:05;;;;;;;68.88;29.10;;;-0.70;79.40;;;;;;4975672;28;20116;-68
2022/01/13 07:46:31;;;;;;;73.47;30.27;;;-0.70;79.40;;;;;;4971816;28;20526;-68
2022/01/13 07:48:56;;;;;;;70.05;30.10;;;-0.70;79.40;;;;;;4977479;28;20049;-69
2022/01/13 07:51:22;;;;;;;70.25;29.58;;;-0.70;79.30;;;;;;4979509;28;20031;-66
2022/01/13 07:53:48;;;;;;;77.72;31.90;;;-0.80;79.30;;;;;;4979244;28;20046;-69
2022/01/13 07:56:14;;;;;;;70.57;29.00;;;-0.80;79.30;;;;;;4978024;28;20066;-68
2022/01/13 07:58:41;;;;;;;69.70;29.77;;;-0.80;79.20;;;;;;4977100;28;20037;-68
2022/01/13 08:01:07;;;;;;;73.55;30.67;;;-0.80;79.40;;;;;;4978700;28;20050;-67
2022/01/13 08:03:33;;;;;;;74.53;30.40;;;-0.80;79.50;;;;;;4978836;28;20031;-68
2022/01/13 08:06:00;;;;;;;74.95;31.13;;;-0.80;79.70;;;;;;4980488;28;20030;-68
2022/01/13 08:08:26;;;;;;;78.22;32.17;;;-0.80;79.70;;;;;;4977885;28;20069;-68
2022/01/13 08:10:51;;;;;;;72.20;30.77;;;-0.80;79.70;;;;;;4976966;28;20118;-68
2022/01/13 08:13:17;;;;;;;72.55;29.35;;;-0.80;79.80;;;;;;4977596;28;20043;-68
2022/01/13 08:15:43;;;;;;;74.03;31.85;;;-0.80;79.80;;;;;;4977597;28;20045;-67
2022/01/13 08:20:53;;;;;;;69.40;28.65;;;-0.70;79.80;;;;;;4978338;28;20045;-68
2022/01/13 08:23:19;;;;;;;74.03;29.50;;;-0.70;79.80;;;;;;4978504;28;20035;-68
2022/01/13 08:25:45;;;;;;;79.50;32.58;;;-0.80;79.70;;;;;;4977067;28;20034;-68
2022/01/13 08:28:11;;;;;;;78.18;32.20;;;-0.80;79.80;;;;;;4977808;28;21737;-68
2022/01/13 08:30:37;;;;;;;78.75;31.10;;;-0.70;79.90;;;;;;4977367;28;20601;-67
2022/01/13 08:33:03;;;;;;;72.03;31.42;;;-0.70;79.90;;;;;;4979538;28;20681;-68
2022/01/13 08:35:29;;;;;;;74.50;30.08;;;-0.70;79.70;;;;;;4978613;28;20045;-67
2022/01/13 08:37:56;;;;;;;71.95;29.50;;;-0.80;79.70;;;;;;4978745;28;20186;-67
2022/01/13 08:40:22;;;;;;;73.68;30.35;;;-0.80;79.70;;;;;;4979165;28;20414;-68
2022/01/13 08:42:47;;;;;;;78.60;31.50;;;-0.80;79.90;;;;;;4977411;28;20031;-68
2022/01/13 08:45:13;;;;;;;74.75;31.17;;;-0.80;80.10;;;;;;4978518;28;20498;-68
2022/01/13 08:47:39;;;;;;;81.72;33.42;;;-0.80;80.20;;;;;;4975639;28;20035;-67
2022/01/13 08:50:07;;;;;;;75.45;31.63;;;-0.80;80.40;;;;;;4972175;28;20144;-68
2022/01/13 08:52:37;;;;;;;77.70;31.80;;;-0.70;80.40;;;;;;4973165;28;20042;-68
2022/01/13 08:55:03;;;;;;;79.70;31.75;;;-0.70;80.20;;;;;;4976053;28;20441;-67
2022/01/13 08:57:28;;;;;;;89.50;32.80;;;-0.70;80.20;;;;;;4977967;28;20112;-66
2022/01/13 08:59:54;;;;;;;81.55;31.95;;;-0.70;80.30;;;;;;4972599;28;20489;-68
2022/01/13 09:02:20;;;;;;;75.30;31.73;;;-0.70;80.40;;;;;;4971198;28;20065;-69
2022/01/13 09:04:45;;;;;;;71.20;30.73;;;-0.70;80.30;;;;;;4974600;28;20516;-68
2022/01/13 09:07:11;;;;;;;70.13;30.27;;;-0.70;80.20;;;;;;4979037;28;20406;-68
2022/01/13 09:09:36;;;;;;;74.15;31.75;;;-0.60;80.30;;;;;;4979299;28;20575;-68
2022/01/13 09:12:03;;;;;;;75.00;32.30;;;-0.60;80.30;;;;;;4976625;28;20450;-68
2022/01/13 09:14:31;;;;;;;73.68;30.27;;;-0.60;80.20;;;;;;4978546;28;20061;-68
2022/01/13 09:16:58;;;;;;;78.32;31.30;;;-0.50;80.30;;;;;;4977687;28;20027;-68
2022/01/13 09:19:23;;;;;;;79.60;33.60;;;-0.50;80.40;;;;;;4979848;28;20035;-65
2022/01/13 09:21:50;;;;;;;83.80;34.25;;;-0.50;80.40;;;;;;4978943;28;20057;-67
2022/01/13 09:24:18;;;;;;;85.15;34.83;;;-0.50;80.20;;;;;;4977366;28;20031;-68
2022/01/13 09:26:45;;;;;;;77.65;31.85;;;-0.50;79.90;;;;;;4979459;28;20061;-67
2022/01/13 09:29:11;;;;;;;72.38;28.70;;;-0.60;79.70;;;;;;4978482;28;20027;-69
2022/01/13 09:31:39;;;;;;;72.78;29.33;;;-0.60;80.00;;;;;;4978217;28;20023;-68
2022/01/13 09:34:06;;;;;;;75.93;30.73;;;-0.60;80.20;;;;;;4977594;28;20043;-69
2022/01/13 09:36:33;;;;;;;75.50;31.42;;;-0.60;80.40;;;;;;4991423;28;20030;-68
2022/01/13 09:39:01;;;;;;;81.68;30.55;;;-0.60;80.60;;;;;;4979073;28;20483;-68
2022/01/13 09:41:30;;;;;;;72.05;30.00;;;-0.50;80.70;;;;;;4978769;28;20045;-68
2022/01/13 09:43:57;;;;;;;91.32;36.63;;;-0.50;80.90;;;;;;4979222;28;20445;-68
2022/01/13 09:46:26;;;;;;;81.97;33.75;;;-0.40;81.00;;;;;;4978867;28;20042;-68
2022/01/13 09:48:52;;;;;;;81.03;33.25;;;-0.40;80.60;;;;;;4978833;28;20091;-68
2022/01/13 09:51:18;;;;;;;83.85;34.35;;;-0.40;80.50;;;;;;4978612;28;20037;-68
2022/01/13 09:53:44;;;;;;;79.72;32.40;;;-0.30;80.60;;;;;;4979171;28;20037;-68
2022/01/13 09:56:10;;;;;;;85.20;35.75;;;-0.30;80.60;;;;;;4979726;28;20129;-68
2022/01/13 09:58:36;;;;;;;80.93;33.15;;;-0.30;80.70;;;;;;4978003;28;20035;-69
2022/01/13 10:01:03;;;;;;;85.10;34.45;;;-0.30;80.40;;;;;;4978502;28;20039;-67
2022/01/13 10:03:29;;;;;;;79.85;32.75;;;-0.30;80.30;;;;;;4977877;28;20065;-68
2022/01/13 10:05:57;;;;;;;82.03;32.17;;;-0.30;80.30;;;;;;4978230;28;20054;-67
2022/01/13 10:08:49;;;;;;;83.18;34.17;;;-0.30;80.40;;;;;;4977951;28;20046;-67
2022/01/13 10:11:35;;;;;;;83.18;33.58;;;-0.20;80.70;;;;;;4976848;28;20104;-67
2022/01/13 10:16:23;;;;;;;75.88;30.40;;;-0.20;80.60;;;;;;4976919;28;20034;-67
2022/01/13 10:17:08;;;;;;;79.90;32.55;;;-0.20;80.70;;;;;;4977703;28;20038;-65
2022/01/13 10:19:42;;;;;;;80.93;33.15;;;-0.10;80.60;;;;;;4979265;28;20104;-68
2022/01/13 10:22:07;;;;;;;80.75;32.45;;;-0.10;80.60;;;;;;4977144;28;20027;-68
2022/01/13 10:24:35;;;;;;;85.65;33.30;;;-0.10;80.60;;;;;;4976421;28;20031;-68
2022/01/13 10:27:04;;;;;;;82.25;33.80;;;0.00;80.50;;;;;;4976807;28;20039;-68
2022/01/13 10:29:49;;;;;;;84.93;33.50;;;0.00;80.00;;;;;;4977206;28;20030;-68
2022/01/13 10:32:23;;;;;;;74.82;31.77;;;0.00;80.00;;;;;;4976888;28;20038;-68
2022/01/13 10:34:55;;;;;;;85.35;36.10;;;0.00;80.00;;;;;;4977513;28;20047;-68
2022/01/13 10:37:30;;;;;;;81.05;32.42;;;0.00;80.00;;;;;;4978271;28;20539;-68
2022/01/13 10:40:11;;;;;;;80.72;32.55;;;0.10;79.80;;;;;;4978144;28;20046;-69
2022/01/13 10:43:06;;;;;;;83.38;33.15;;;0.00;79.90;;;;;;4977403;28;20117;-68
2022/01/13 10:45:53;;;;;;;80.03;32.75;;;0.00;80.20;;;;;;4977480;28;20026;-68
2022/01/13 10:48:24;;;;;;;84.65;33.53;;;0.00;80.20;;;;;;4977284;28;20038;-68
2022/01/13 10:50:58;;;;;;;85.25;34.30;;;0.00;80.20;;;;;;4977343;28;20038;-69
2022/01/13 10:53:32;;;;;;;83.43;34.83;;;0.00;80.20;;;;;;4993309;28;20030;-68
2022/01/13 10:56:07;;;;;;;81.38;33.83;;;0.00;80.20;;;;;;4987812;28;20121;-67
2022/01/13 10:58:49;;;;;;;76.70;31.60;;;0.00;80.20;;;;;;4981884;28;20039;-69
2022/01/13 11:01:15;;;;;;;84.45;34.78;;;0.00;80.70;;;;;;4981978;28;20042;-68
2022/01/13 11:03:44;;;;;;;86.63;34.83;;;0.10;80.60;;;;;;4982315;28;20529;-68
2022/01/13 11:06:10;;;;;;;82.90;33.00;;;0.10;80.50;;;;;;4982711;28;20038;-68
2022/01/13 11:08:41;;;;;;;79.20;33.78;;;0.20;80.40;;;;;;4980881;28;20502;-67
2022/01/13 11:11:14;;;;;;;75.35;31.95;;;0.10;81.20;;;;;;4977334;28;20089;-68
2022/01/13 11:13:50;;;;;;;72.73;31.87;;;0.20;80.40;;;;;;4980178;28;20039;-69
2022/01/13 11:16:16;;;;;;;72.85;29.75;;;0.20;80.60;;;;;;4994820;28;20037;-69
2022/01/13 11:18:42;;;;;;;73.47;30.60;;;0.30;80.50;;;;;;4980811;28;20611;-69
2022/01/13 11:21:08;;;;;;;73.05;30.70;;;0.30;80.30;;;;;;4981295;28;20038;-68
2022/01/13 11:23:34;;;;;;;71.72;29.92;;;0.40;80.20;;;;;;4980899;28;20126;-68
2022/01/13 11:26:01;;;;;;;70.15;28.33;;;0.40;80.20;;;;;;4980057;28;20042;-67
2022/01/13 11:28:26;;;;;;;73.70;30.40;;;0.50;81.10;;;;;;4979250;28;20034;-68
2022/01/13 11:30:52;;;;;;;71.25;30.88;;;0.50;80.00;;;;;;4981848;28;20109;-66
2022/01/13 11:33:20;;;;;;;70.13;29.83;;;0.60;79.90;;;;;;4978917;28;20035;-68
2022/01/13 11:35:53;;;;;;;69.30;29.55;;;0.60;79.70;;;;;;4980713;28;20074;-68
2022/01/13 11:38:19;;;;;;;71.70;29.25;;;0.60;79.80;;;;;;4980413;28;20034;-68
2022/01/13 11:40:48;;;;;;;74.18;31.30;;;0.70;79.90;;;;;;4979936;28;20050;-67
2022/01/13 11:43:36;;;;;;;72.90;29.45;;;0.70;79.90;;;;;;4981468;28;20414;-68
2022/01/13 11:46:21;;;;;;;74.95;30.45;;;0.80;79.90;;;;;;4980605;28;20105;-67
2022/01/13 11:48:57;;;;;;;;;;;0.80;79.80;;;;;;4977729;28;20034;-66
2022/01/13 11:51:23;;;;;;;66.30;27.33;;;0.80;79.90;;;;;;4980899;28;19921;-67
2022/01/13 11:53:59;;;;;;;69.50;29.52;;;0.90;79.40;;;;;;4979786;28;20031;-68
2022/01/13 11:56:26;;;;;;;69.88;30.42;;;0.90;79.30;;;;;;4978222;28;20035;-68
2022/01/13 11:58:53;;;;;;;73.38;31.05;;;0.90;79.30;;;;;;4979387;28;20060;-68
2022/01/13 12:01:32;;;;;;;69.55;29.70;;;0.90;80.00;;;;;;4979776;28;20178;-69
2022/01/13 12:04:05;;;;;;;73.90;32.05;;;1.00;79.20;;;;;;4979372;28;20122;-69
2022/01/13 12:06:41;;;;;;;74.35;29.63;;;1.00;79.00;;;;;;4979004;28;20088;-68
2022/01/13 12:09:21;;;;;;;83.70;34.45;;;1.00;78.80;;;;;;4979792;28;20039;-68
2022/01/13 12:11:53;;;;;;;76.80;31.95;;;1.00;78.80;;;;;;4977282;28;20050;-67
2022/01/13 12:14:27;;;;;;;73.40;30.65;;;0.90;79.00;;;;;;4994841;28;20154;-68
2022/01/13 12:17:19;;;;;;;77.22;29.80;;;1.00;79.20;;;;;;4980103;28;20070;-69
2022/01/13 12:19:49;;;;;;;79.80;34.83;;;1.00;79.30;;;;;;4981142;28;20163;-65
2022/01/13 12:22:26;;;;;;;75.07;31.15;;;1.00;79.30;;;;;;4977542;28;20031;-68
2022/01/13 12:24:56;;;;;;;74.70;31.25;;;1.00;79.00;;;;;;4979913;28;20033;-67
2022/01/13 12:27:25;;;;;;;70.82;30.63;;;1.00;79.00;;;;;;4981756;28;20242;-68
2022/01/13 12:30:02;;;;;;;81.53;34.20;;;1.00;80.00;;;;;;4979871;28;20537;-68
2022/01/13 12:32:39;;;;;;;80.25;34.05;;;1.00;79.00;;;;;;4983070;28;20049;-67
2022/01/13 12:35:08;;;;;;;79.40;33.58;;;1.00;78.70;;;;;;4979003;28;20529;-68
2022/01/13 12:37:38;;;;;;;70.95;30.40;;;1.00;78.60;;;;;;4980214;28;20076;-68
2022/01/13 12:40:16;;;;;;;77.47;34.88;;;1.00;78.90;;;;;;4980237;28;20120;-68
2022/01/13 12:42:52;;;;;;;85.82;36.35;;;0.90;79.00;;;;;;4977814;28;20034;-68
2022/01/13 12:45:33;;;;;;;77.90;33.40;;;0.90;78.60;;;;;;4979511;28;20097;-68
2022/01/13 12:47:58;;;;;;;76.65;32.65;;;0.80;78.60;;;;;;4978585;28;20037;-68
2022/01/13 12:50:30;;;;;;;77.90;32.00;;;0.80;79.00;;;;;;4978574;28;20034;-68
2022/01/13 12:53:06;;;;;;;75.05;30.58;;;0.70;79.30;;;;;;4976418;28;20175;-66
2022/01/13 12:55:32;;;;;;;88.75;37.83;;;0.70;79.60;;;;;;4977636;28;20038;-69
2022/01/13 12:57:57;;;;;;;82.03;33.80;;;0.70;79.90;;;;;;4978180;28;20564;-66
2022/01/13 13:00:25;;;;;;;79.68;35.35;;;0.80;79.40;;;;;;4978709;28;20093;-66